createdAt,value
2022-11-05T00:04:41.979Z,99.99
2022-11-05T00:10:00.759Z,99.99
2022-11-05T00:15:19.961Z,99.99
2022-11-05T00:20:40.315Z,99.99
2022-11-05T00:25:58.239Z,99.99
2022-11-05T00:31:17.717Z,99.99
2022-11-05T00:36:37.865Z,99.99
2022-11-05T00:43:12.426Z,99.99
2022-11-05T00:47:15.238Z,99.99
2022-11-05T00:52:34.583Z,99.99
2022-11-05T00:57:54.072Z,99.99
2022-11-05T01:03:22.872Z,99.99
2022-11-05T01:08:32.312Z,99.76
2022-11-05T01:13:52.104Z,99.57
2022-11-05T01:19:12.008Z,99.48
2022-11-05T01:24:30.235Z,99.34
2022-11-05T01:29:50.088Z,99.37
2022-11-05T01:36:24.247Z,99.43
2022-11-05T01:40:38.868Z,99.51
2022-11-05T01:45:47.022Z,99.53
2022-11-05T01:51:06.319Z,99.61
2022-11-05T01:56:25.162Z,99.64
2022-11-05T02:01:45.068Z,99.6
2022-11-05T02:07:04.134Z,99.7
2022-11-05T02:12:31.656Z,99.65
2022-11-05T02:17:43.674Z,99.74
2022-11-05T02:23:02.310Z,99.78
2022-11-05T02:28:22.381Z,99.82
2022-11-05T02:33:41.977Z,99.87
2022-11-05T02:39:01.721Z,99.98
2022-11-05T02:44:20.358Z,99.97
2022-11-05T02:49:40.107Z,99.96
2022-11-05T02:55:00.230Z,99.98
2022-11-05T03:00:19.864Z,99.99
2022-11-05T03:05:38.507Z,99.99
2022-11-05T03:10:58.130Z,99.99
2022-11-05T03:16:17.709Z,99.99
2022-11-05T03:21:36.620Z,99.99
2022-11-05T03:26:55.184Z,99.99
2022-11-05T03:32:14.067Z,99.99
2022-11-05T03:37:33.623Z,99.99
2022-11-05T03:42:52.869Z,99.99
2022-11-05T03:48:11.930Z,99.99
2022-11-05T03:53:31.106Z,99.99
2022-11-05T03:58:48.905Z,99.99
2022-11-05T04:04:08.529Z,99.99
2022-11-05T04:09:27.928Z,99.99
2022-11-05T04:14:47.349Z,99.99
2022-11-05T04:20:06.390Z,99.99
2022-11-05T04:25:25.189Z,99.99
2022-11-05T04:30:44.646Z,99.99
2022-11-05T04:36:04.105Z,99.99
2022-11-05T04:41:23.960Z,99.99
2022-11-05T04:46:43.702Z,99.99
2022-11-05T04:53:17.866Z,99.99
2022-11-05T04:57:22.066Z,99.99
2022-11-05T05:02:40.790Z,99.99
2022-11-05T05:09:15.003Z,99.99
2022-11-05T05:13:19.045Z,99.99
2022-11-05T05:18:42.195Z,99.99
2022-11-05T05:23:58.308Z,99.99
2022-11-05T05:29:17.313Z,99.99
2022-11-05T05:34:35.454Z,99.99
2022-11-05T05:39:55.069Z,99.99
2022-11-05T05:45:14.735Z,99.99
2022-11-05T05:50:33.695Z,99.99
2022-11-05T05:55:52.915Z,99.99
2022-11-05T06:01:15.688Z,99.99
2022-11-05T06:06:31.671Z,99.99
2022-11-05T06:11:50.851Z,99.99
2022-11-05T06:17:09.555Z,99.99
2022-11-05T06:22:28.626Z,99.99
2022-11-05T06:27:47.932Z,99.99
2022-11-05T06:33:06.942Z,99.99
2022-11-05T06:38:26.567Z,99.99
2022-11-05T06:43:46.558Z,99.99
2022-11-05T06:49:05.132Z,99.99
2022-11-05T06:54:24.240Z,99.99
2022-11-05T06:59:43.323Z,99.99
2022-11-05T07:05:02.653Z,99.99
2022-11-05T07:10:21.840Z,99.99
2022-11-05T07:15:40.771Z,99.99
2022-11-05T07:21:01.160Z,99.99
2022-11-05T07:26:20.536Z,99.99
2022-11-05T07:32:54.746Z,99.99
2022-11-05T07:36:57.975Z,99.99
2022-11-05T07:42:17.410Z,99.99
2022-11-05T07:42:42.447Z,99.99
2022-11-05T07:48:02.043Z,99.99
2022-11-05T07:53:21.400Z,99.99
2022-11-05T07:58:40.155Z,99.99
2022-11-05T08:03:59.480Z,99.99
2022-11-05T08:09:18.951Z,99.99
2022-11-05T08:14:38.677Z,99.99
2022-11-05T08:19:57.056Z,99.99
2022-11-05T08:25:16.566Z,99.99
2022-11-05T08:30:34.742Z,99.99
2022-11-05T08:35:54.310Z,99.99
2022-11-05T08:41:13.658Z,99.99
2022-11-05T08:46:41.980Z,99.99
2022-11-05T08:51:52.362Z,99.99
2022-11-05T08:58:26.513Z,99.98
2022-11-05T09:02:29.523Z,99.82
2022-11-05T09:07:49.159Z,99.72
2022-11-05T09:13:13.214Z,99.67
2022-11-05T09:18:28.977Z,99.7
2022-11-05T09:23:47.411Z,99.67
2022-11-05T09:29:10.355Z,99.68
2022-11-05T09:34:26.422Z,99.73
2022-11-05T09:39:45.683Z,99.78
2022-11-05T09:45:05.333Z,99.77
2022-11-05T09:50:23.992Z,99.79
2022-11-05T09:55:43.822Z,99.79
2022-11-05T10:01:03.474Z,99.69
2022-11-05T10:06:22.254Z,99.64
2022-11-05T10:11:41.945Z,99.3
2022-11-05T10:17:01.706Z,98.88
2022-11-05T10:22:21.415Z,98.1
2022-11-05T10:27:41.124Z,96.79
2022-11-05T10:33:00.530Z,96.06
2022-11-05T10:38:18.776Z,94.76
2022-11-05T10:43:37.826Z,92.66
2022-11-05T10:48:57.569Z,90.01
2022-11-05T10:54:15.685Z,89.61
2022-11-05T10:59:35.269Z,87.6
2022-11-05T11:04:54.506Z,87.99
2022-11-05T11:10:14.907Z,82.2
2022-11-05T11:15:33.107Z,78.57
2022-11-05T11:20:52.435Z,80.14
2022-11-05T11:26:12.494Z,82.49
2022-11-05T11:32:46.628Z,84.61
2022-11-05T11:36:50.306Z,85.13
2022-11-05T11:42:09.239Z,86.03
2022-11-05T11:47:28.615Z,87.21
2022-11-05T11:52:47.793Z,87.82
2022-11-05T11:58:16.837Z,91.39
2022-11-05T12:03:25.819Z,94.43
2022-11-05T12:08:46.180Z,95.65
2022-11-05T12:14:04.426Z,96.4
2022-11-05T12:19:24.037Z,97.11
2022-11-05T12:24:42.496Z,97.05
2022-11-05T12:30:01.905Z,96.96
2022-11-05T12:35:20.517Z,95.56
2022-11-05T12:40:40.288Z,92.9
2022-11-05T12:46:00.004Z,90.28
2022-11-05T12:51:18.294Z,91.47
2022-11-05T12:56:38.009Z,92.62
2022-11-05T13:01:57.804Z,91.12
2022-11-05T13:07:17.351Z,88.42
2022-11-05T13:12:36.489Z,88.45
2022-11-05T13:18:05.418Z,90.09
2022-11-05T13:23:15.326Z,91.12
2022-11-05T13:28:34.602Z,91.9
2022-11-05T13:33:53.431Z,92
2022-11-05T13:39:13.151Z,92.04
2022-11-05T13:44:32.424Z,91.06
2022-11-05T13:49:51.517Z,91.25
2022-11-05T13:55:11.216Z,90.65
2022-11-05T14:00:30.630Z,91.84
2022-11-05T14:05:50.055Z,92.26
2022-11-05T14:11:09.977Z,93.15
2022-11-05T14:16:28.378Z,93.36
2022-11-05T14:21:47.404Z,94.07
2022-11-05T14:27:06.151Z,95.09
2022-11-05T14:32:25.894Z,95.02
2022-11-05T14:37:44.865Z,96.14
2022-11-05T14:43:04.545Z,96.54
2022-11-05T14:48:23.785Z,97.05
2022-11-05T14:53:42.695Z,96.48
2022-11-05T14:59:01.946Z,95.71
2022-11-05T15:04:21.092Z,95.79
2022-11-05T15:09:41.379Z,95.74
2022-11-05T15:15:00.245Z,96.17
2022-11-05T15:20:19.017Z,96.57
2022-11-05T15:25:50.377Z,97.09
2022-11-05T15:30:57.004Z,97.48
2022-11-05T15:36:15.942Z,97.71
2022-11-05T15:41:35.243Z,97.63
2022-11-05T15:46:54.319Z,97.42
2022-11-05T15:52:14.258Z,97.14
2022-11-05T15:57:32.204Z,97.09
2022-11-05T16:02:51.931Z,97.42
2022-11-05T16:08:11.705Z,97.81
2022-11-05T16:13:30.759Z,98.17
2022-11-05T16:18:49.905Z,98.5
2022-11-05T16:24:10.297Z,98.86
2022-11-05T16:29:28.645Z,98.98
2022-11-05T16:34:48.286Z,99.06
2022-11-05T16:40:08.215Z,99.18
2022-11-05T16:45:27.543Z,99.25
2022-11-05T16:50:47.149Z,99.16
2022-11-05T16:57:21.302Z,99.08
2022-11-05T17:01:25.343Z,99.06
2022-11-05T17:06:44.951Z,99.17
2022-11-05T17:12:04.098Z,99.29
2022-11-05T17:17:23.093Z,99.28
2022-11-05T17:22:42.612Z,99.2
2022-11-05T17:28:00.880Z,99.08
2022-11-05T17:33:20.453Z,98.84
2022-11-05T17:38:39.082Z,98.66
2022-11-05T17:43:58.433Z,98.78
2022-11-05T17:49:17.387Z,98.75
2022-11-05T17:54:37.263Z,98.78
2022-11-05T17:59:56.956Z,98.94
2022-11-05T18:05:16.668Z,98.99
2022-11-05T18:10:35.453Z,99.06
2022-11-05T18:17:09.619Z,99.16
2022-11-05T18:21:13.427Z,99.23
2022-11-05T18:26:33.015Z,99.31
2022-11-05T18:31:52.533Z,99.25
2022-11-05T18:37:11.202Z,99.4
2022-11-05T18:42:30.249Z,99.44
2022-11-05T18:47:49.424Z,99.51
2022-11-05T18:53:08.435Z,99.59
2022-11-05T18:58:27.752Z,99.59
2022-11-05T19:03:46.696Z,99.62
2022-11-05T19:09:06.415Z,99.78
2022-11-05T19:14:25.838Z,99.94
2022-11-05T19:19:45.183Z,99.99
2022-11-05T19:25:04.705Z,99.99
2022-11-05T19:30:25.083Z,99.99
2022-11-05T19:35:44.636Z,99.99
2022-11-05T19:41:04.365Z,99.99
2022-11-05T19:48:02.945Z,99.99
2022-11-05T19:57:02.050Z,99.99
2022-11-05T20:02:20.476Z,99.99
2022-11-05T20:07:39.878Z,99.99
2022-11-05T20:12:58.955Z,99.99
2022-11-05T20:18:18.025Z,99.99
2022-11-05T20:23:37.210Z,99.99
2022-11-05T20:28:56.333Z,99.99
2022-11-05T20:34:15.500Z,99.99
2022-11-05T20:39:35.262Z,99.99
2022-11-05T20:44:53.798Z,99.99
2022-11-05T20:50:12.600Z,99.99
2022-11-05T20:55:31.107Z,99.99
2022-11-05T21:00:50.684Z,99.99
2022-11-05T21:06:09.563Z,99.99
2022-11-05T21:11:29.024Z,99.99
2022-11-05T21:16:47.858Z,99.99
2022-11-05T21:22:06.791Z,99.99
2022-11-05T21:27:26.586Z,99.99
2022-11-05T21:32:46.329Z,99.99
2022-11-05T21:38:05.369Z,99.99
2022-11-05T21:43:24.797Z,99.99
2022-11-05T21:48:44.733Z,99.99
2022-11-05T21:54:04.164Z,99.99
2022-11-05T21:59:23.661Z,99.99
2022-11-05T22:04:42.729Z,99.99
2022-11-05T22:10:01.921Z,99.99
2022-11-05T22:15:21.808Z,99.99
2022-11-05T22:20:40.377Z,99.99
2022-11-05T22:25:59.720Z,99.99
2022-11-05T22:31:19.034Z,99.99
2022-11-05T22:36:37.809Z,99.99
2022-11-05T22:41:57.533Z,99.99
2022-11-05T22:47:17.367Z,99.99
2022-11-05T22:52:36.682Z,99.99
2022-11-05T22:57:56.313Z,99.99
2022-11-05T23:03:16.858Z,99.99
2022-11-05T23:08:35.934Z,99.99
2022-11-05T23:13:54.804Z,99.99
2022-11-05T23:19:13.823Z,99.99
2022-11-05T23:24:32.523Z,99.99
2022-11-05T23:29:52.129Z,99.99
2022-11-05T23:35:11.809Z,99.99
2022-11-05T23:40:30.390Z,99.99
2022-11-05T23:45:49.886Z,99.99
2022-11-05T23:51:08.981Z,99.99
2022-11-05T23:56:28.538Z,99.99
